Time;durP1;ratioP1;P1;durP2;ratioP2;P2;SDS_P1;SDS_P2;PMS_P1;PMS_P2;Temp;Humidity;BMP_temperature;BMP_pressure;BME280_temperature;BME280_humidity;BME280_pressure;Samples;Min_cycle;Max_cycle;Signal;HPM_P1;HPM_P2
2023/10/05 00:03:52;;;;;;;12.45;3.10;;;;;;;13.44;67.43;101275.97;10375918;28;20049;-56
2023/10/05 00:08:56;;;;;;;7.00;3.35;;;;;;;13.45;67.57;101279.53;10376948;28;20136;-56
2023/10/05 00:14:04;;;;;;;8.88;2.95;;;;;;;13.47;67.76;101264.84;10378912;28;20064;-56
2023/10/05 00:19:11;;;;;;;10.25;2.10;;;;;;;13.49;67.67;101249.31;10372044;28;20049;-55
2023/10/05 00:24:13;;;;;;;10.65;3.28;;;;;;;13.41;67.92;101254.72;10375796;28;20133;-58
2023/10/05 00:34:27;;;;;;;12.10;3.00;;;;;;;13.43;67.77;101246.47;10374139;28;20064;-58
2023/10/05 00:39:31;;;;;;;9.13;2.70;;;;;;;13.36;68.22;101226.53;10376318;28;20041;-57
2023/10/05 00:44:35;;;;;;;9.30;3.05;;;;;;;13.29;68.35;101232.63;10377764;28;20050;-57
2023/10/05 00:49:51;;;;;;;9.95;2.47;;;;;;;13.28;68.41;101227.38;10372285;28;20057;-58
2023/10/05 00:54:56;;;;;;;11.88;2.70;;;;;;;13.21;68.61;101218.25;10372695;28;20503;-57
2023/10/05 01:05:16;;;;;;;10.73;2.50;;;;;;;13.13;69.01;101229.09;10382076;28;20060;-58
2023/10/05 01:15:33;;;;;;;;;;;;;;;13.03;69.04;101224.72;10382196;28;20060;-58
2023/10/05 01:20:37;;;;;;;9.02;2.90;;;;;;;13.01;68.75;101224.06;10382840;28;19921;-58
2023/10/05 01:25:39;;;;;;;8.80;2.28;;;;;;;13.03;68.99;101213.06;10385668;28;20047;-57
2023/10/05 01:30:41;;;;;;;7.53;1.88;;;;;;;12.97;69.30;101214.59;10382569;28;20772;-57
2023/10/05 01:35:42;;;;;;;7.38;2.60;;;;;;;13.03;69.27;101218.47;10384469;28;20037;-56
2023/10/05 01:40:47;;;;;;;10.73;2.15;;;;;;;12.98;69.41;101212.75;10380963;28;20055;-56
2023/10/05 01:45:50;;;;;;;9.85;2.95;;;;;;;12.98;69.89;101223.56;10373987;28;20070;-56
2023/10/05 01:50:51;;;;;;;11.98;2.42;;;;;;;13.01;69.77;101224.06;10378548;28;20041;-56
2023/10/05 01:55:54;;;;;;;11.32;3.05;;;;;;;13.11;69.69;101226.53;10381263;28;20048;-55
2023/10/05 02:00:56;;;;;;;8.25;2.53;;;;;;;13.15;69.57;101222.53;10377310;28;20041;-55
2023/10/05 02:06:05;;;;;;;8.15;2.63;;;;;;;13.11;69.64;101226.53;10379402;28;20396;-57
2023/10/05 02:11:07;;;;;;;7.18;2.75;;;;;;;13.13;69.58;101220.97;10378764;28;20471;-56
2023/10/05 02:16:20;;;;;;;10.38;2.97;;;;;;;13.20;69.38;101225.53;10379265;28;20048;-56
2023/10/05 02:21:36;;;;;;;12.27;2.85;;;;;;;13.21;69.50;101219.13;10377042;28;20050;-56
2023/10/05 02:37:05;;;;;;;7.85;2.65;;;;;;;13.35;69.13;101216.75;10378384;28;20100;-57
2023/10/05 02:42:12;;;;;;;7.15;2.90;;;;;;;13.22;69.40;101220.78;10375294;28;20576;-58
2023/10/05 02:47:14;;;;;;;8.35;2.40;;;;;;;13.26;69.34;101224.84;10378013;28;20516;-57
2023/10/05 02:52:16;;;;;;;7.28;2.05;;;;;;;13.29;69.01;101227.25;10379558;28;20048;-58
2023/10/05 02:57:19;;;;;;;13.13;3.33;;;;;;;13.28;69.42;101224.66;10380770;28;20081;-57
2023/10/05 03:02:23;;;;;;;11.27;2.90;;;;;;;13.34;69.04;101231.28;10375310;28;20041;-58
2023/10/05 03:07:25;;;;;;;14.32;2.95;;;;;;;13.33;69.10;101218.78;10378547;28;20056;-57
2023/10/05 03:12:27;;;;;;;10.55;2.70;;;;;;;13.31;69.33;101218.97;10376761;28;20053;-58
2023/10/05 03:17:31;;;;;;;11.70;3.42;;;;;;;13.37;68.96;101228.22;10378234;28;20037;-57
2023/10/05 03:22:34;;;;;;;9.05;3.08;;;;;;;13.40;69.14;101226.00;10377069;28;20489;-58
2023/10/05 03:27:36;;;;;;;8.95;2.65;;;;;;;13.38;69.14;101228.06;10380152;28;20041;-58
2023/10/05 03:32:37;;;;;;;10.35;3.08;;;;;;;13.36;69.28;101235.47;10376901;28;20077;-57
2023/10/05 03:37:41;;;;;;;13.93;3.67;;;;;;;13.36;69.39;101240.88;10374036;28;20052;-58
2023/10/05 03:42:46;;;;;;;11.63;3.47;;;;;;;13.26;69.54;101241.03;10373195;28;20045;-57
2023/10/05 03:47:49;;;;;;;9.85;3.17;;;;;;;13.24;69.65;101237.66;10377077;28;20052;-57
2023/10/05 03:52:50;;;;;;;12.75;3.72;;;;;;;13.30;69.53;101228.06;10375399;28;20046;-57
2023/10/05 03:57:52;;;;;;;9.05;3.15;;;;;;;13.34;69.26;101215.91;10374929;28;20049;-58
2023/10/05 04:02:54;;;;;;;10.23;2.85;;;;;;;13.35;69.27;101222.16;10374314;28;20430;-57
2023/10/05 04:08:10;;;;;;;14.35;2.75;;;;;;;13.36;69.21;101221.97;10374929;28;20065;-58
2023/10/05 04:13:14;;;;;;;11.70;3.33;;;;;;;13.27;69.50;101207.63;10368770;28;20393;-58
2023/10/05 04:18:16;;;;;;;9.05;3.60;;;;;;;13.31;69.70;101212.69;10383283;28;20044;-57
2023/10/05 04:23:25;;;;;;;9.80;3.55;;;;;;;13.32;69.70;101227.91;10371243;28;20046;-58
2023/10/05 04:28:33;;;;;;;10.95;3.75;;;;;;;13.28;69.52;101222.81;10376214;28;20052;-58
2023/10/05 04:33:36;;;;;;;11.60;3.88;;;;;;;13.17;70.00;101204.28;10366011;28;20050;-58
2023/10/05 04:38:37;;;;;;;9.45;3.63;;;;;;;13.17;70.14;101195.31;10377495;28;20049;-58
2023/10/05 04:43:43;;;;;;;12.98;3.58;;;;;;;13.22;70.00;101201.91;10374190;28;20144;-57
2023/10/05 04:48:55;;;;;;;12.35;3.90;;;;;;;13.21;69.76;101197.53;10372787;28;20049;-58
2023/10/05 04:53:59;;;;;;;15.45;4.93;;;;;;;13.32;69.45;101198.19;10372630;28;20053;-58
2023/10/05 05:09:50;;;;;;;12.63;4.05;;;;;;;13.24;69.96;101207.97;10347785;28;20041;-57
2023/10/05 05:14:53;;;;;;;15.55;3.92;;;;;;;13.27;69.72;101207.63;10373642;28;20404;-57
2023/10/05 05:19:57;;;;;;;13.80;3.88;;;;;;;13.22;70.14;101211.88;10370072;28;20724;-57
2023/10/05 05:24:58;;;;;;;16.48;4.03;;;;;;;13.19;70.25;101214.91;10369826;28;20045;-57
2023/10/05 05:30:00;;;;;;;13.27;4.60;;;;;;;13.14;70.57;101219.97;10371476;28;20039;-60
2023/10/05 05:35:02;;;;;;;10.40;4.07;;;;;;;13.13;70.55;101216.44;10364282;28;20096;-60
2023/10/05 05:40:11;;;;;;;10.75;4.45;;;;;;;13.20;70.55;101222.81;10362741;28;20064;-59
2023/10/05 05:45:16;;;;;;;10.95;4.00;;;;;;;13.22;70.37;101239.69;10363026;28;20049;-60
2023/10/05 05:50:17;;;;;;;12.77;3.80;;;;;;;13.32;70.29;101234.16;10374398;28;20060;-61
2023/10/05 05:55:22;;;;;;;12.93;4.75;;;;;;;13.31;70.48;101235.19;10378301;28;20056;-63
2023/10/05 06:00:25;;;;;;;11.65;4.22;;;;;;;13.36;70.30;101242.75;10377286;28;20068;-61
2023/10/05 06:05:26;;;;;;;14.48;4.57;;;;;;;13.42;70.21;101239.34;10380205;28;20033;-62
2023/10/05 06:10:28;;;;;;;17.58;4.22;;;;;;;13.60;69.92;101239.97;10378244;28;20045;-63
2023/10/05 06:15:32;;;;;;;15.32;4.35;;;;;;;13.67;69.82;101232.03;10378814;28;20148;-58
2023/10/05 06:20:33;;;;;;;12.38;3.65;;;;;;;13.79;69.57;101236.03;10376888;28;20060;-61
2023/10/05 06:25:34;;;;;;;14.20;4.75;;;;;;;13.81;69.62;101243.97;10382491;28;20053;-58
2023/10/05 06:30:37;;;;;;;14.55;5.05;;;;;;;13.86;69.57;101250.53;10376824;28;20393;-58
2023/10/05 06:35:39;;;;;;;15.90;5.07;;;;;;;13.93;69.68;101249.81;10382013;28;20145;-57
2023/10/05 06:40:41;;;;;;;12.82;4.30;;;;;;;13.97;69.73;101252.00;10379213;28;20433;-57
2023/10/05 06:45:44;;;;;;;19.40;5.05;;;;;;;13.95;69.58;101247.78;10375835;28;20061;-58
2023/10/05 06:50:46;;;;;;;17.02;4.25;;;;;;;13.88;70.13;101234.13;10379634;28;20045;-58
2023/10/05 06:55:48;;;;;;;15.73;4.55;;;;;;;13.98;70.06;101232.06;10380709;28;20045;-57
2023/10/05 07:00:50;;;;;;;9.80;4.03;;;;;;;14.01;69.86;101220.03;10384794;28;20041;-58
2023/10/05 07:05:51;;;;;;;15.70;4.60;;;;;;;14.05;69.95;101235.72;10378802;28;20042;-59
2023/10/05 07:10:53;;;;;;;14.85;4.82;;;;;;;14.12;69.70;101248.53;10380161;28;20048;-57
2023/10/05 07:15:55;;;;;;;11.95;4.82;;;;;;;14.20;69.54;101264.75;10373669;28;20112;-58
2023/10/05 07:20:57;;;;;;;16.08;4.90;;;;;;;14.25;69.61;101273.16;10378929;28;20544;-60
2023/10/05 07:25:59;;;;;;;12.40;4.63;;;;;;;14.28;69.67;101280.91;10382612;28;20149;-58
2023/10/05 07:31:02;;;;;;;11.45;4.88;;;;;;;14.29;69.82;101279.88;10374292;28;20432;-58
2023/10/05 07:36:05;;;;;;;12.45;4.70;;;;;;;14.29;69.81;101277.19;10369474;28;20128;-58
2023/10/05 07:41:07;;;;;;;15.10;5.00;;;;;;;14.44;69.39;101278.09;10371012;28;20115;-58
2023/10/05 07:46:09;;;;;;;13.73;4.53;;;;;;;14.55;69.21;101284.97;10374103;28;20042;-59
2023/10/05 07:51:13;;;;;;;12.30;4.90;;;;;;;14.61;69.11;101289.72;10371820;28;20191;-58
2023/10/05 07:56:15;;;;;;;12.65;4.68;;;;;;;14.72;68.97;101285.72;10375059;28;20046;-58
2023/10/05 08:01:18;;;;;;;16.13;5.68;;;;;;;14.85;68.58;101280.56;10371914;28;20045;-58
2023/10/05 08:06:20;;;;;;;18.42;5.70;;;;;;;14.97;68.57;101293.66;10374911;28;20157;-59
2023/10/05 08:11:22;;;;;;;17.58;5.70;;;;;;;15.13;68.21;101290.00;10375168;28;20420;-59
2023/10/05 08:16:23;;;;;;;10.52;4.68;;;;;;;15.22;68.11;101289.72;10373430;28;20611;-58
2023/10/05 08:21:25;;;;;;;14.13;4.78;;;;;;;15.34;67.83;101287.41;10372187;28;20069;-58
2023/10/05 08:26:28;;;;;;;13.85;5.25;;;;;;;15.49;67.42;101298.28;10374207;28;20057;-60
2023/10/05 08:31:30;;;;;;;11.50;3.53;;;;;;;15.69;67.31;101304.00;10374303;28;20084;-57
2023/10/05 08:36:33;;;;;;;16.63;4.57;;;;;;;15.76;67.07;101306.84;10382190;28;20069;-58
2023/10/05 08:41:35;;;;;;;16.40;4.93;;;;;;;15.88;66.96;101309.91;10386078;28;20033;-56
2023/10/05 08:46:42;;;;;;;13.75;3.35;;;;;;;15.64;67.01;101309.97;10390489;28;20072;-57
2023/10/05 08:51:44;;;;;;;9.48;2.80;;;;;;;15.95;66.08;101316.28;10381457;28;20073;-57
2023/10/05 08:57:10;;;;;;;9.45;3.63;;;;;;;16.00;66.24;101314.69;10389749;28;20081;-60
2023/10/05 09:02:18;;;;;;;11.55;3.05;;;;;;;16.22;65.81;101306.63;10374051;28;20049;-56
2023/10/05 09:07:29;;;;;;;6.20;3.05;;;;;;;16.39;65.68;101297.22;10385022;28;20058;-56
2023/10/05 09:12:35;;;;;;;14.80;3.38;;;;;;;16.63;65.24;101292.47;10383115;28;20041;-57
2023/10/05 09:23:09;;;;;;;14.95;3.03;;;;;;;17.00;64.14;101313.16;10372853;28;20441;-57
2023/10/05 09:28:13;;;;;;;8.77;2.50;;;;;;;17.27;63.65;101307.94;10376545;28;20049;-57
2023/10/05 09:33:18;;;;;;;11.88;2.70;;;;;;;17.30;63.43;101321.13;10379589;28;20052;-58
2023/10/05 09:38:22;;;;;;;10.77;2.92;;;;;;;17.35;63.28;101321.38;10378656;28;20050;-57
2023/10/05 09:43:27;;;;;;;8.18;2.58;;;;;;;17.53;62.66;101314.59;10376981;28;20471;-60
2023/10/05 09:48:31;;;;;;;7.65;2.47;;;;;;;17.64;62.31;101328.50;10379158;28;20057;-59
2023/10/05 09:53:35;;;;;;;8.15;2.72;;;;;;;17.73;62.18;101317.47;10381714;28;20492;-60
2023/10/05 09:58:39;;;;;;;10.68;2.35;;;;;;;17.92;61.75;101316.78;10378960;28;20044;-60
2023/10/05 10:03:45;;;;;;;10.75;3.03;;;;;;;18.10;61.13;101323.56;10379407;28;20060;-59
2023/10/05 10:08:51;;;;;;;8.70;2.47;;;;;;;18.35;60.68;101329.34;10382250;28;20072;-61
2023/10/05 10:14:00;;;;;;;12.52;2.53;;;;;;;18.23;60.65;101331.81;10382774;28;20037;-61
2023/10/05 10:19:16;;;;;;;5.53;2.05;;;;;;;18.34;59.86;101328.47;10376901;28;20557;-60
2023/10/05 10:24:19;;;;;;;9.30;2.80;;;;;;;18.43;60.08;101338.16;10379650;28;20050;-60
2023/10/05 10:29:23;;;;;;;8.27;2.20;;;;;;;18.37;60.02;101322.63;10376162;28;20412;-61
2023/10/05 10:34:50;;;;;;;7.20;1.98;;;;;;;18.57;59.96;101327.31;10378601;28;20414;-60
2023/10/05 10:39:56;;;;;;;6.68;1.48;;;;;;;18.69;59.57;101336.56;10376205;28;20053;-61
2023/10/05 10:44:58;;;;;;;10.35;1.92;;;;;;;18.74;59.09;101335.94;10391460;28;20042;-61
2023/10/05 10:50:08;;;;;;;9.40;2.25;;;;;;;18.67;59.15;101344.09;10386130;28;20046;-63
2023/10/05 10:55:14;;;;;;;12.38;2.88;;;;;;;18.80;58.56;101346.06;10369244;28;20123;-58
2023/10/05 11:05:39;;;;;;;7.20;1.75;;;;;;;18.44;58.80;101344.44;10401314;28;20044;-61
2023/10/05 11:10:42;;;;;;;9.18;2.08;;;;;;;18.50;58.90;101334.59;10371138;28;20073;-59
2023/10/05 11:16:00;;;;;;;8.05;1.92;;;;;;;18.57;58.48;101338.22;10383459;28;20057;-59
2023/10/05 11:21:05;;;;;;;9.07;2.08;;;;;;;18.68;58.63;101331.31;10389662;28;20041;-59
2023/10/05 11:26:33;;;;;;;8.18;1.95;;;;;;;18.59;58.48;101333.41;10376646;28;20056;-59
2023/10/05 11:31:51;;;;;;;8.60;2.25;;;;;;;18.70;58.40;101332.81;10376806;28;20049;-58
2023/10/05 11:37:15;;;;;;;10.57;2.03;;;;;;;18.85;58.12;101312.75;10375150;28;20049;-58
2023/10/05 11:42:24;;;;;;;5.00;1.30;;;;;;;18.83;58.01;101324.66;10379846;28;20504;-60
2023/10/05 11:47:46;;;;;;;8.75;1.48;;;;;;;18.97;57.73;101317.34;10375541;28;20176;-60
2023/10/05 11:52:48;;;;;;;6.22;1.10;;;;;;;19.08;57.46;101306.91;10375782;28;20472;-60
2023/10/05 11:57:51;;;;;;;3.67;1.52;;;;;;;19.09;57.11;101295.78;10375203;28;20037;-59
2023/10/05 12:02:53;;;;;;;5.63;0.90;;;;;;;19.16;56.96;101277.53;10376654;28;20561;-62
2023/10/05 12:07:54;;;;;;;8.55;1.63;;;;;;;19.30;56.83;101267.47;10378837;28;20046;-61
2023/10/05 12:12:56;;;;;;;4.88;0.90;;;;;;;19.41;56.34;101265.97;10382380;28;20038;-62
2023/10/05 12:17:57;;;;;;;6.95;0.85;;;;;;;19.42;56.08;101284.84;10378554;28;20045;-62
2023/10/05 12:22:59;;;;;;;6.75;0.90;;;;;;;19.32;56.04;101302.72;10378376;28;20120;-62
2023/10/05 12:28:02;;;;;;;6.22;0.90;;;;;;;19.19;56.20;101298.94;10375624;28;20041;-60
2023/10/05 12:33:04;;;;;;;7.32;1.05;;;;;;;19.06;56.05;101293.50;10377737;28;20042;-61
2023/10/05 12:38:10;;;;;;;3.75;0.80;;;;;;;19.16;55.82;101302.06;10371463;28;20419;-60
2023/10/05 12:43:15;;;;;;;3.85;0.80;;;;;;;19.17;55.59;101294.72;10378452;28;20057;-61
2023/10/05 12:48:19;;;;;;;6.25;0.82;;;;;;;19.17;55.56;101295.59;10376665;28;20054;-62
2023/10/05 12:53:20;;;;;;;3.42;0.70;;;;;;;19.29;55.13;101284.88;10378333;28;20052;-61
2023/10/05 12:58:23;;;;;;;3.83;1.20;;;;;;;19.40;55.38;101297.03;10377513;28;20046;-60
2023/10/05 13:03:27;;;;;;;5.45;0.60;;;;;;;19.62;54.50;101300.38;10384118;28;20050;-60
2023/10/05 13:08:29;;;;;;;5.05;1.38;;;;;;;19.61;54.29;101302.25;10384755;28;20050;-61
2023/10/05 13:13:30;;;;;;;3.00;0.60;;;;;;;19.64;54.45;101300.16;10380306;28;20658;-61
2023/10/05 13:18:32;;;;;;;4.35;0.80;;;;;;;19.66;54.19;101298.06;10382546;28;20104;-60
2023/10/05 13:23:33;;;;;;;3.53;1.48;;;;;;;19.77;54.21;101297.44;10375907;28;20053;-60
2023/10/05 13:28:35;;;;;;;5.30;0.60;;;;;;;19.83;54.22;101298.44;10382064;28;20056;-60
2023/10/05 13:33:39;;;;;;;7.45;0.75;;;;;;;20.04;53.38;101286.44;10391149;28;20038;-60
2023/10/05 13:38:43;;;;;;;3.83;0.80;;;;;;;19.77;53.74;101273.72;10403158;28;20049;-60
2023/10/05 13:43:47;;;;;;;6.72;0.77;;;;;;;19.50;54.13;101275.63;10397929;28;20069;-60
2023/10/05 13:48:54;;;;;;;3.63;0.50;;;;;;;19.54;53.72;101282.31;10383162;28;20057;-60
2023/10/05 13:54:12;;;;;;;4.53;1.00;;;;;;;19.47;53.91;101277.94;10389029;28;20073;-61
2023/10/05 13:59:17;;;;;;;7.88;0.90;;;;;;;19.41;54.11;101283.19;10398932;28;20458;-60
2023/10/05 14:04:20;;;;;;;2.42;0.60;;;;;;;19.25;54.43;101286.34;10392607;28;20054;-59
2023/10/05 14:09:22;;;;;;;2.83;0.57;;;;;;;19.30;54.01;101288.44;10381862;28;20599;-59
2023/10/05 14:14:25;;;;;;;4.80;0.60;;;;;;;19.36;53.85;101291.16;10400572;28;20073;-59
2023/10/05 14:19:27;;;;;;;6.80;0.60;;;;;;;19.16;54.10;101293.91;10393760;28;20099;-59
2023/10/05 14:24:32;;;;;;;3.42;0.60;;;;;;;19.28;54.38;101294.09;10387705;28;20053;-58
2023/10/05 14:29:34;;;;;;;5.55;1.63;;;;;;;19.52;53.44;101308.16;10369711;28;20130;-58
2023/10/05 14:34:41;;;;;;;4.90;0.68;;;;;;;19.80;53.43;101305.19;10386928;28;20081;-61
2023/10/05 14:39:45;;;;;;;8.23;1.00;;;;;;;19.44;53.97;101303.75;10383894;28;20041;-59
2023/10/05 14:44:46;;;;;;;3.25;0.60;;;;;;;19.40;54.10;101305.22;10385676;28;20094;-60
2023/10/05 14:49:48;;;;;;;4.68;0.82;;;;;;;19.20;54.19;101299.78;10380253;28;20062;-60
2023/10/05 14:54:50;;;;;;;1.35;0.65;;;;;;;19.19;54.15;101290.78;10388591;28;20104;-60
2023/10/05 14:59:51;;;;;;;3.00;0.57;;;;;;;19.24;54.20;101289.31;10380001;28;20073;-60
2023/10/05 15:04:54;;;;;;;8.73;1.75;;;;;;;19.33;54.00;101290.75;10379154;28;20104;-60
2023/10/05 15:09:56;;;;;;;3.80;0.60;;;;;;;19.47;54.02;101295.16;10363945;28;20296;-60
2023/10/05 15:14:57;;;;;;;2.95;0.60;;;;;;;19.46;53.76;101295.34;10373900;28;20041;-59
2023/10/05 15:19:59;;;;;;;2.85;0.45;;;;;;;19.47;54.04;101295.16;10375332;28;20048;-60
2023/10/05 15:25:01;;;;;;;2.47;0.60;;;;;;;19.69;53.37;101287.56;10383919;28;20050;-60
2023/10/05 15:30:10;;;;;;;3.13;0.45;;;;;;;19.62;53.11;101292.19;10373428;28;20129;-59
2023/10/05 15:35:15;;;;;;;3.60;1.05;;;;;;;19.67;53.15;101283.34;10391153;28;20053;-60
2023/10/05 15:40:20;;;;;;;6.03;0.70;;;;;;;19.85;52.71;101280.00;10378345;28;20089;-60
2023/10/05 15:45:24;;;;;;;4.45;0.50;;;;;;;19.61;53.05;101288.63;10381203;28;20054;-60
2023/10/05 15:50:27;;;;;;;3.78;0.70;;;;;;;19.48;53.32;101282.34;10375290;28;20040;-60
2023/10/05 15:55:31;;;;;;;4.55;0.70;;;;;;;19.24;53.64;101290.13;10381414;28;20052;-59
2023/10/05 16:00:34;;;;;;;4.60;0.80;;;;;;;19.11;54.05;101295.56;10372985;28;20127;-60
2023/10/05 16:05:39;;;;;;;4.10;0.60;;;;;;;19.16;53.90;101296.63;10393868;28;20056;-62
2023/10/05 16:10:40;;;;;;;7.07;0.80;;;;;;;19.02;54.46;101294.97;10367952;28;20045;-61
2023/10/05 16:15:42;;;;;;;7.22;1.00;;;;;;;18.96;54.37;101293.91;10391142;28;20123;-60
2023/10/05 16:20:44;;;;;;;7.30;0.80;;;;;;;18.93;54.67;101288.03;10369654;28;20049;-62
2023/10/05 16:25:46;;;;;;;2.70;0.90;;;;;;;18.76;54.89;101302.00;10387732;28;20096;-64
2023/10/05 16:30:49;;;;;;;5.35;1.55;;;;;;;18.72;54.79;101295.31;10374807;28;20053;-62
2023/10/05 16:35:51;;;;;;;7.07;0.82;;;;;;;18.65;55.02;101305.34;10383851;28;20116;-63
2023/10/05 16:40:56;;;;;;;7.85;1.25;;;;;;;18.57;55.10;101311.81;10382355;28;20132;-59
2023/10/05 16:45:58;;;;;;;5.03;1.15;;;;;;;18.36;55.82;101312.78;10394711;28;20049;-59
2023/10/05 16:51:04;;;;;;;7.28;0.90;;;;;;;18.25;55.96;101313.38;10365523;28;20509;-59
2023/10/05 16:56:07;;;;;;;6.30;0.77;;;;;;;18.15;56.35;101323.81;10388531;28;20121;-58
2023/10/05 17:01:09;;;;;;;4.80;0.70;;;;;;;18.00;56.61;101322.03;10386312;28;20049;-60
2023/10/05 17:06:11;;;;;;;6.65;1.20;;;;;;;17.84;56.87;101325.09;10378456;28;20052;-59
2023/10/05 17:11:12;;;;;;;6.78;0.90;;;;;;;17.76;57.14;101330.66;10388499;28;20327;-58
2023/10/05 17:16:13;;;;;;;6.25;1.17;;;;;;;17.57;57.66;101327.59;10386224;28;20361;-58
2023/10/05 17:21:15;;;;;;;5.78;1.20;;;;;;;17.38;58.14;101334.56;10377348;28;20041;-58
2023/10/05 17:26:17;;;;;;;5.80;1.65;;;;;;;17.26;58.36;101341.59;10378228;28;20049;-58
2023/10/05 17:31:19;;;;;;;7.22;2.05;;;;;;;17.07;58.84;101343.06;10376031;28;20133;-57
2023/10/05 17:36:21;;;;;;;7.75;1.95;;;;;;;17.01;59.00;101341.16;10381023;28;20042;-57
2023/10/05 17:41:23;;;;;;;4.35;1.92;;;;;;;16.91;59.32;101341.47;10379692;28;20077;-57
2023/10/05 17:46:24;;;;;;;5.20;1.23;;;;;;;16.81;59.34;101341.78;10384753;28;20053;-58
2023/10/05 17:51:26;;;;;;;11.07;3.08;;;;;;;16.69;59.78;101346.00;10382354;28;20072;-57
2023/10/05 17:56:27;;;;;;;9.05;2.58;;;;;;;16.56;60.35;101346.69;10384223;28;20048;-57
2023/10/05 18:01:29;;;;;;;7.03;1.67;;;;;;;16.53;60.49;101343.50;10385340;28;20050;-57
2023/10/05 18:06:31;;;;;;;16.38;5.68;;;;;;;16.43;60.51;101341.94;10375663;28;20046;-56
2023/10/05 18:11:32;;;;;;;13.73;6.65;;;;;;;16.27;61.16;101344.84;10381405;28;20045;-57
2023/10/05 18:16:34;;;;;;;8.20;2.60;;;;;;;16.09;61.23;101347.13;10381385;28;20065;-58
2023/10/05 18:21:39;;;;;;;9.05;2.08;;;;;;;15.95;61.47;101346.94;10372533;28;20037;-58
2023/10/05 18:26:49;;;;;;;13.93;1.63;;;;;;;15.85;61.56;101349.91;10377640;28;20395;-56
2023/10/05 18:31:50;;;;;;;13.73;4.70;;;;;;;15.74;61.90;101357.66;10374505;28;20041;-57
2023/10/05 18:36:52;;;;;;;20.15;8.68;;;;;;;15.60;62.27;101357.44;10371846;28;20038;-57
2023/10/05 18:41:54;;;;;;;14.30;6.53;;;;;;;15.50;62.62;101359.59;10376143;28;20696;-57
2023/10/05 18:46:56;;;;;;;11.07;3.50;;;;;;;15.37;63.00;101353.94;10373661;28;20061;-57
2023/10/05 18:51:57;;;;;;;8.38;4.40;;;;;;;15.26;62.96;101363.34;10387199;28;20034;-57
2023/10/05 18:56:59;;;;;;;11.25;4.22;;;;;;;15.15;63.52;101361.91;10382004;28;20176;-56
2023/10/05 19:02:01;;;;;;;11.10;3.83;;;;;;;15.07;63.59;101353.84;10380694;28;20056;-58
2023/10/05 19:07:03;;;;;;;9.65;3.22;;;;;;;14.94;64.08;101357.13;10378526;28;20111;-59
2023/10/05 19:12:06;;;;;;;11.32;3.67;;;;;;;14.86;64.18;101360.75;10391858;28;20030;-56
2023/10/05 19:17:08;;;;;;;9.95;3.83;;;;;;;14.76;64.29;101362.00;10378772;28;20052;-55
2023/10/05 19:22:12;;;;;;;16.80;4.22;;;;;;;14.73;64.37;101368.63;10387940;28;20052;-57
2023/10/05 19:27:13;;;;;;;13.85;4.85;;;;;;;14.65;64.61;101366.81;10388249;28;20483;-57
2023/10/05 19:32:15;;;;;;;10.50;3.45;;;;;;;14.61;64.75;101367.31;10371840;28;20505;-59
2023/10/05 19:37:16;;;;;;;5.88;2.75;;;;;;;14.58;64.82;101368.53;10379963;28;20079;-57
2023/10/05 19:42:18;;;;;;;5.53;1.98;;;;;;;14.44;65.21;101378.19;10384805;28;20069;-56
2023/10/05 19:47:19;;;;;;;25.05;9.18;;;;;;;14.50;65.37;101375.81;10383421;28;20136;-57
2023/10/05 19:52:21;;;;;;;58.50;20.63;;;;;;;14.52;65.26;101369.22;10378509;28;20064;-55
2023/10/05 19:57:26;;;;;;;34.60;15.23;;;;;;;14.51;65.19;101366.66;10365263;28;20061;-56
2023/10/05 20:02:28;;;;;;;31.85;12.98;;;;;;;14.50;65.30;101373.13;10376540;28;20049;-56
2023/10/05 20:07:33;;;;;;;56.50;21.50;;;;;;;14.52;65.14;101380.03;10375990;28;20046;-55
2023/10/05 20:12:35;;;;;;;20.35;6.88;;;;;;;14.53;65.32;101391.69;10394894;28;20125;-55
2023/10/05 20:17:36;;;;;;;11.05;3.80;;;;;;;14.50;65.78;101382.06;10382656;28;20048;-55
2023/10/05 20:22:39;;;;;;;14.60;4.00;;;;;;;14.47;65.52;101377.88;10375464;28;20778;-57
2023/10/05 20:27:41;;;;;;;12.25;3.83;;;;;;;14.43;65.74;101376.50;10379123;28;20034;-58
2023/10/05 20:32:44;;;;;;;6.00;2.50;;;;;;;14.41;65.52;101367.72;10374066;28;20046;-58
2023/10/05 20:37:46;;;;;;;6.05;2.92;;;;;;;14.35;65.83;101376.53;10379753;28;20493;-58
2023/10/05 20:42:47;;;;;;;8.95;2.78;;;;;;;14.30;65.95;101368.13;10379409;28;20054;-58
2023/10/05 20:47:49;;;;;;;10.00;5.03;;;;;;;14.20;65.95;101371.03;10378312;28;20038;-58
2023/10/05 20:52:52;;;;;;;6.40;3.03;;;;;;;14.05;66.19;101387.13;10373876;28;20045;-57
2023/10/05 20:57:54;;;;;;;9.95;3.63;;;;;;;13.98;66.24;101386.16;10375084;28;20057;-58
2023/10/05 21:02:55;;;;;;;7.05;3.30;;;;;;;13.80;66.74;101386.38;10372440;28;20113;-57
2023/10/05 21:07:59;;;;;;;9.32;3.35;;;;;;;13.77;66.78;101386.69;10376685;28;20591;-57
2023/10/05 21:13:00;;;;;;;9.32;2.85;;;;;;;13.71;66.69;101387.38;10371517;28;20073;-57
2023/10/05 21:18:02;;;;;;;10.88;4.15;;;;;;;13.64;66.77;101392.59;10374452;28;20077;-58
2023/10/05 21:23:05;;;;;;;12.63;3.95;;;;;;;13.54;67.00;101388.41;10384849;28;20072;-57
2023/10/05 21:28:06;;;;;;;7.55;3.47;;;;;;;13.45;67.14;101387.56;10387274;28;20087;-56
2023/10/05 21:33:08;;;;;;;9.27;3.75;;;;;;;13.38;67.25;101391.94;10384348;28;20065;-58
2023/10/05 21:38:11;;;;;;;11.18;3.83;;;;;;;13.14;67.76;101398.16;10385048;28;20045;-55
2023/10/05 21:43:13;;;;;;;8.68;3.67;;;;;;;13.06;67.75;101399.81;10387266;28;20054;-55
2023/10/05 21:48:14;;;;;;;12.75;3.70;;;;;;;13.06;67.79;101399.00;10383310;28;20065;-57
2023/10/05 21:53:18;;;;;;;9.73;3.30;;;;;;;13.04;67.83;101401.00;10394069;28;20060;-56
2023/10/05 21:58:20;;;;;;;8.40;3.25;;;;;;;12.97;67.88;101405.38;10391591;28;20076;-55
2023/10/05 22:03:21;;;;;;;5.05;2.53;;;;;;;12.93;67.77;101406.72;10367574;28;20057;-56
2023/10/05 22:08:24;;;;;;;9.05;2.80;;;;;;;12.89;67.83;101392.69;10382106;28;20050;-58
2023/10/05 22:13:26;;;;;;;6.25;2.70;;;;;;;12.85;67.95;101386.78;10382055;28;20053;-55
2023/10/05 22:18:29;;;;;;;8.07;3.85;;;;;;;12.82;67.69;101386.28;10379116;28;20425;-56
2023/10/05 22:23:30;;;;;;;5.68;2.10;;;;;;;12.75;67.79;101399.59;10382396;28;20632;-56
2023/10/05 22:28:32;;;;;;;7.15;2.58;;;;;;;12.71;68.13;101390.13;10378524;28;20049;-56
2023/10/05 22:33:33;;;;;;;7.50;3.05;;;;;;;12.63;67.98;101395.50;10381601;28;20045;-55
2023/10/05 22:38:35;;;;;;;5.53;2.30;;;;;;;12.55;68.28;101395.47;10384010;28;20527;-55
2023/10/05 22:43:45;;;;;;;7.57;2.17;;;;;;;12.49;68.21;101408.59;10378347;28;20049;-57
2023/10/05 22:48:46;;;;;;;5.13;2.20;;;;;;;12.25;68.73;101417.44;10386784;28;20502;-57
2023/10/05 22:53:48;;;;;;;6.95;2.47;;;;;;;12.10;69.31;101419.88;10381304;28;20045;-57
2023/10/05 22:58:50;;;;;;;6.10;2.40;;;;;;;12.18;68.83;101423.63;10380131;28;20123;-57
2023/10/05 23:03:51;;;;;;;6.72;2.40;;;;;;;12.21;68.79;101436.78;10384731;28;20062;-58
2023/10/05 23:08:53;;;;;;;5.35;1.92;;;;;;;12.19;68.90;101436.94;10382759;28;20124;-57
2023/10/05 23:13:54;;;;;;;5.78;2.03;;;;;;;12.12;68.73;101440.44;10381189;28;20061;-57
2023/10/05 23:18:58;;;;;;;5.78;1.67;;;;;;;12.13;68.96;101439.44;10376626;28;20500;-57
2023/10/05 23:24:03;;;;;;;8.40;1.90;;;;;;;12.10;69.02;101432.50;10377721;28;20045;-57
2023/10/05 23:29:08;;;;;;;4.45;1.70;;;;;;;12.06;68.64;101425.75;10381999;28;20056;-57
2023/10/05 23:34:16;;;;;;;7.72;3.00;;;;;;;12.02;68.72;101430.59;10380547;28;20065;-57
2023/10/05 23:39:24;;;;;;;10.18;3.08;;;;;;;12.01;68.77;101441.56;10382200;28;20046;-57
2023/10/05 23:44:26;;;;;;;5.65;2.80;;;;;;;11.96;68.95;101433.94;10381088;28;20413;-58
2023/10/05 23:49:31;;;;;;;8.95;3.22;;;;;;;11.95;68.74;101428.69;10377604;28;20056;-57
2023/10/05 23:54:33;;;;;;;6.70;2.90;;;;;;;11.89;68.72;101428.34;10378252;28;20061;-58
2023/10/05 23:59:35;;;;;;;8.35;3.30;;;;;;;11.86;69.02;101427.78;10379703;28;20056;-57
